Time;durP1;ratioP1;P1;durP2;ratioP2;P2;SDS_P1;SDS_P2;PMS_P1;PMS_P2;Temp;Humidity;BMP_temperature;BMP_pressure;BME280_temperature;BME280_humidity;BME280_pressure;Samples;Min_cycle;Max_cycle;Signal;HPM_P1;HPM_P2
2022/12/13 00:01:44;;;;;;;50.45;22.48;;;-2.80;99.90;;;;;;5065441;28;20351;-71
2022/12/13 00:04:10;;;;;;;51.88;22.52;;;-2.80;99.90;;;;;;5061793;28;20086;-70
2022/12/13 00:06:36;;;;;;;53.00;23.90;;;-2.80;99.90;;;;;;5059955;28;20016;-70
2022/12/13 00:09:03;;;;;;;51.63;23.92;;;-2.80;99.90;;;;;;5071593;28;20075;-70
2022/12/13 00:11:29;;;;;;;50.50;22.85;;;-2.80;99.90;;;;;;5073209;28;20020;-70
2022/12/13 00:13:54;;;;;;;48.55;22.55;;;-2.90;99.90;;;;;;5073265;28;20078;-70
2022/12/13 00:16:23;;;;;;;49.55;22.77;;;-2.90;99.90;;;;;;5071190;28;20363;-70
2022/12/13 00:18:51;;;;;;;51.75;22.77;;;-2.90;99.90;;;;;;5068918;28;20111;-69
2022/12/13 00:21:19;;;;;;;46.80;21.40;;;-2.90;99.90;;;;;;5070094;28;20020;-70
2022/12/13 00:23:45;;;;;;;51.33;23.10;;;-2.90;99.90;;;;;;5072389;28;20020;-70
2022/12/13 00:26:17;;;;;;;52.70;23.10;;;-2.90;99.90;;;;;;5073027;28;20074;-71
2022/12/13 00:28:42;;;;;;;47.20;21.75;;;-2.90;99.90;;;;;;5068144;28;20025;-70
2022/12/13 00:31:09;;;;;;;50.38;23.02;;;-2.90;99.90;;;;;;5060300;28;20031;-70
2022/12/13 00:33:38;;;;;;;48.78;22.00;;;-3.00;99.90;;;;;;5069600;28;20044;-70
2022/12/13 00:36:05;;;;;;;48.72;21.92;;;-3.00;99.90;;;;;;5058937;28;20472;-70
2022/12/13 00:38:32;;;;;;;49.80;22.45;;;-3.00;99.90;;;;;;5060324;28;20032;-70
2022/12/13 00:40:58;;;;;;;50.10;22.30;;;-3.00;99.90;;;;;;5070962;28;20027;-70
2022/12/13 00:43:24;;;;;;;51.17;22.73;;;-3.00;99.90;;;;;;5068494;28;20024;-71
2022/12/13 00:45:49;;;;;;;47.80;21.50;;;-3.00;99.90;;;;;;5072287;28;20063;-71
2022/12/13 00:48:15;;;;;;;52.63;22.67;;;-3.00;99.90;;;;;;5072514;28;20025;-70
2022/12/13 00:50:41;;;;;;;44.40;21.90;;;-3.00;99.90;;;;;;5084255;28;20416;-70
2022/12/13 00:53:06;;;;;;;50.05;22.23;;;-3.10;99.90;;;;;;5071810;28;20060;-70
2022/12/13 00:55:32;;;;;;;51.55;23.48;;;-3.10;99.90;;;;;;5059442;28;20024;-70
2022/12/13 00:57:58;;;;;;;46.80;21.58;;;-3.10;99.90;;;;;;5071697;28;20032;-70
2022/12/13 01:00:24;;;;;;;45.35;20.65;;;-3.10;99.90;;;;;;5058365;28;20025;-70
2022/12/13 01:02:52;;;;;;;47.92;21.73;;;-3.10;99.90;;;;;;5055790;28;20588;-69
2022/12/13 01:05:18;;;;;;;46.38;21.05;;;-3.10;99.90;;;;;;5059794;28;20425;-70
2022/12/13 01:07:44;;;;;;;47.22;21.15;;;-3.10;99.90;;;;;;5066641;28;20059;-70
2022/12/13 01:10:11;;;;;;;46.92;21.30;;;-3.10;99.90;;;;;;5074181;28;20024;-70
2022/12/13 01:12:38;;;;;;;47.88;20.95;;;-3.10;99.90;;;;;;5054101;28;20060;-71
2022/12/13 01:15:05;;;;;;;54.78;22.40;;;-3.20;99.90;;;;;;5049806;28;20028;-70
2022/12/13 01:17:33;;;;;;;55.25;22.50;;;-3.20;99.90;;;;;;5065467;28;20025;-70
2022/12/13 01:19:58;;;;;;;50.47;22.25;;;-3.20;99.90;;;;;;5058122;28;20048;-70
2022/12/13 01:22:24;;;;;;;45.22;21.55;;;-3.20;99.90;;;;;;5062651;28;20029;-70
2022/12/13 01:24:50;;;;;;;46.85;21.08;;;-3.20;99.90;;;;;;5059841;28;20145;-70
2022/12/13 01:27:15;;;;;;;44.80;20.65;;;-3.20;99.90;;;;;;5073636;28;20362;-70
2022/12/13 01:29:41;;;;;;;52.45;22.42;;;-3.20;99.90;;;;;;5074942;28;20073;-70
2022/12/13 01:32:06;;;;;;;50.78;22.65;;;-3.20;99.90;;;;;;5072765;28;20055;-70
2022/12/13 01:34:32;;;;;;;49.58;22.70;;;-3.20;99.90;;;;;;5071506;28;20028;-70
2022/12/13 01:36:58;;;;;;;51.13;22.85;;;-3.20;99.90;;;;;;5071298;28;20474;-70
2022/12/13 01:39:23;;;;;;;47.28;22.00;;;-3.20;99.90;;;;;;5068581;28;20393;-70
2022/12/13 01:41:55;;;;;;;51.05;21.63;;;-3.20;99.90;;;;;;5068333;28;20025;-71
2022/12/13 01:44:55;;;;;;;52.35;22.90;;;-3.30;99.90;;;;;;5071685;28;20446;-70
2022/12/13 01:47:32;;;;;;;48.70;22.15;;;-3.30;99.90;;;;;;5077041;28;20365;-70
2022/12/13 01:50:01;;;;;;;52.88;22.98;;;-3.30;99.90;;;;;;5062980;28;20099;-70
2022/12/13 01:52:31;;;;;;;54.83;23.30;;;-3.30;99.90;;;;;;5069268;28;20025;-71
2022/12/13 01:54:59;;;;;;;52.25;22.30;;;-3.30;99.90;;;;;;5071121;28;20366;-71
2022/12/13 01:57:26;;;;;;;59.22;24.08;;;-3.30;99.90;;;;;;5071781;28;20021;-71
2022/12/13 01:59:53;;;;;;;53.33;22.63;;;-3.30;99.90;;;;;;5059125;28;20028;-71
2022/12/13 02:02:19;;;;;;;54.15;22.63;;;-3.30;99.90;;;;;;5066464;28;20052;-71
2022/12/13 02:04:49;;;;;;;52.88;22.75;;;-3.30;99.90;;;;;;5067835;28;20025;-70
2022/12/13 02:07:20;;;;;;;56.95;23.42;;;-3.30;99.90;;;;;;5072196;28;20032;-68
2022/12/13 02:09:47;;;;;;;50.95;21.58;;;-3.30;99.90;;;;;;5072940;28;20143;-69
2022/12/13 02:12:12;;;;;;;56.60;24.70;;;-3.30;99.90;;;;;;5072942;28;20378;-69
2022/12/13 02:14:39;;;;;;;55.05;22.67;;;-3.30;99.90;;;;;;5071165;28;20101;-69
2022/12/13 02:17:10;;;;;;;50.28;22.20;;;-3.30;99.90;;;;;;5070650;28;20103;-69
2022/12/13 02:19:56;;;;;;;52.40;22.73;;;-3.30;99.90;;;;;;5070328;28;20067;-70
2022/12/13 02:22:58;;;;;;;54.08;23.25;;;-3.30;99.90;;;;;;5058231;28;20039;-69
2022/12/13 02:25:27;;;;;;;54.75;22.85;;;-3.40;99.90;;;;;;5064210;28;20116;-70
2022/12/13 02:28:16;;;;;;;53.17;21.77;;;-3.40;99.90;;;;;;5063637;28;20028;-69
2022/12/13 02:30:53;;;;;;;50.92;22.25;;;-3.40;99.90;;;;;;5058275;28;20024;-70
2022/12/13 02:33:28;;;;;;;48.38;20.98;;;-3.40;99.90;;;;;;5045224;28;20025;-69
2022/12/13 02:35:53;;;;;;;50.33;22.63;;;-3.40;99.90;;;;;;5069669;28;20028;-70
2022/12/13 02:38:25;;;;;;;51.67;22.88;;;-3.50;99.90;;;;;;5071052;28;20420;-69
2022/12/13 02:41:02;;;;;;;46.63;21.98;;;-3.40;99.90;;;;;;5081111;28;20048;-70
2022/12/13 02:43:48;;;;;;;51.53;22.10;;;-3.40;99.90;;;;;;5047823;28;20027;-70
2022/12/13 02:46:19;;;;;;;46.67;21.90;;;-3.50;99.90;;;;;;5074578;28;20020;-70
2022/12/13 02:48:48;;;;;;;53.42;22.55;;;-3.50;99.90;;;;;;5071779;28;20017;-70
2022/12/13 02:51:16;;;;;;;49.45;21.80;;;-3.50;99.90;;;;;;5076676;28;20054;-70
2022/12/13 02:53:43;;;;;;;49.47;22.13;;;-3.50;99.90;;;;;;5083297;28;20128;-70
2022/12/13 02:56:09;;;;;;;43.75;21.70;;;-3.40;99.90;;;;;;5070997;28;20029;-71
2022/12/13 02:58:40;;;;;;;46.88;21.88;;;-3.40;99.90;;;;;;5073562;28;20074;-70
2022/12/13 03:01:11;;;;;;;49.25;22.25;;;-3.40;99.90;;;;;;5049053;28;20025;-70
2022/12/13 03:03:44;;;;;;;50.85;21.98;;;-3.40;99.90;;;;;;5057726;28;20128;-70
2022/12/13 03:06:40;;;;;;;53.95;22.67;;;-3.40;99.90;;;;;;5071724;28;20033;-70
2022/12/13 03:09:14;;;;;;;54.25;22.77;;;-3.40;99.90;;;;;;5059436;28;20573;-70
2022/12/13 03:15:10;;;;;;;45.92;20.73;;;-3.40;99.90;;;;;;5067712;28;20121;-70
2022/12/13 03:17:42;;;;;;;53.85;21.42;;;-3.40;99.90;;;;;;5059733;28;20503;-70
2022/12/13 03:20:09;;;;;;;47.28;20.65;;;-3.50;99.90;;;;;;5066419;28;20101;-70
2022/12/13 03:22:34;;;;;;;50.83;21.80;;;-3.50;99.90;;;;;;5067648;28;20063;-70
2022/12/13 03:25:00;;;;;;;53.65;22.23;;;-3.50;99.90;;;;;;5056353;28;20060;-71
2022/12/13 03:27:26;;;;;;;45.22;21.42;;;-3.50;99.90;;;;;;5063131;28;20356;-71
2022/12/13 03:29:52;;;;;;;51.25;21.70;;;-3.50;99.90;;;;;;5079564;28;20091;-70
2022/12/13 03:32:17;;;;;;;50.53;22.10;;;-3.50;99.90;;;;;;5073519;28;20040;-70
2022/12/13 03:34:43;;;;;;;51.00;22.08;;;-3.50;99.90;;;;;;5071140;28;20064;-70
2022/12/13 03:37:09;;;;;;;50.38;22.00;;;-3.50;99.90;;;;;;5071075;28;20451;-69
2022/12/13 03:39:35;;;;;;;45.85;22.45;;;-3.50;99.90;;;;;;5067513;28;20028;-69
2022/12/13 03:42:01;;;;;;;45.55;20.85;;;-3.50;99.90;;;;;;5072970;28;20433;-69
2022/12/13 03:44:26;;;;;;;49.65;20.95;;;-3.60;99.90;;;;;;5057135;28;20025;-70
2022/12/13 03:46:52;;;;;;;42.78;20.95;;;-3.60;99.90;;;;;;5077503;28;20036;-70
2022/12/13 03:49:18;;;;;;;48.58;21.75;;;-3.60;99.90;;;;;;5068925;28;20025;-70
2022/12/13 03:51:44;;;;;;;48.55;21.00;;;-3.60;99.90;;;;;;5073693;28;20023;-71
2022/12/13 03:54:10;;;;;;;47.63;21.27;;;-3.60;99.90;;;;;;5072589;28;20040;-70
2022/12/13 03:56:35;;;;;;;46.38;21.00;;;-3.60;99.90;;;;;;5073418;28;20027;-70
2022/12/13 03:59:01;;;;;;;51.60;21.50;;;-3.60;99.90;;;;;;5067648;28;20120;-70
2022/12/13 04:01:27;;;;;;;51.85;22.55;;;-3.60;99.90;;;;;;5064702;28;20044;-70
2022/12/13 04:03:52;;;;;;;46.15;20.75;;;-3.60;99.90;;;;;;5060946;28;20123;-70
2022/12/13 04:06:18;;;;;;;48.72;20.30;;;-3.60;99.90;;;;;;5053823;28;20688;-70
2022/12/13 04:08:44;;;;;;;47.60;21.27;;;-3.60;99.90;;;;;;5058909;28;20061;-70
2022/12/13 04:13:54;;;;;;;47.50;21.33;;;-3.60;99.90;;;;;;5066316;28;20045;-71
2022/12/13 04:16:22;;;;;;;46.97;21.15;;;-3.70;99.90;;;;;;5068272;28;20029;-70
2022/12/13 04:18:48;;;;;;;50.30;21.80;;;-3.70;99.90;;;;;;5064771;28;20031;-70
2022/12/13 04:21:14;;;;;;;46.20;20.38;;;-3.70;99.90;;;;;;5068084;28;20120;-71
2022/12/13 04:23:39;;;;;;;50.92;21.65;;;-3.70;99.90;;;;;;5070446;28;20094;-71
2022/12/13 04:26:05;;;;;;;45.75;20.33;;;-3.70;99.90;;;;;;5063981;28;20028;-70
2022/12/13 04:28:31;;;;;;;47.45;21.73;;;-3.70;99.90;;;;;;5055357;28;20032;-70
2022/12/13 04:30:57;;;;;;;49.97;21.30;;;-3.70;99.90;;;;;;5062866;28;20013;-70
2022/12/13 04:33:23;;;;;;;49.42;21.33;;;-3.70;99.90;;;;;;5071997;28;20090;-70
2022/12/13 04:35:50;;;;;;;46.97;20.55;;;-3.70;99.90;;;;;;5066789;28;20052;-70
2022/12/13 04:38:16;;;;;;;44.70;21.02;;;-3.80;99.90;;;;;;5073124;28;20085;-70
2022/12/13 04:40:41;;;;;;;49.03;21.40;;;-3.80;99.90;;;;;;5072741;28;20016;-70
2022/12/13 04:43:07;;;;;;;47.65;20.30;;;-3.80;99.90;;;;;;5066250;28;20031;-70
2022/12/13 04:45:33;;;;;;;46.00;20.88;;;-3.80;99.90;;;;;;5062834;28;20442;-70
2022/12/13 04:47:58;;;;;;;47.10;20.77;;;-3.80;99.90;;;;;;5067193;28;20024;-70
2022/12/13 04:50:25;;;;;;;121.55;60.78;;;-3.80;99.90;;;;;;5062020;28;20032;-70
2022/12/13 04:52:50;;;;;;;59.28;26.63;;;-3.80;99.90;;;;;;5071693;28;20794;-70
2022/12/13 04:55:16;;;;;;;48.20;23.23;;;-3.80;99.90;;;;;;5072488;28;20028;-71
2022/12/13 04:57:42;;;;;;;48.08;21.83;;;-3.80;99.90;;;;;;5072189;28;20024;-70
2022/12/13 05:00:12;;;;;;;48.30;21.27;;;-3.80;99.90;;;;;;5065794;28;20024;-71
2022/12/13 05:02:39;;;;;;;50.88;21.65;;;-3.80;99.90;;;;;;5072096;28;20044;-70
2022/12/13 05:05:06;;;;;;;46.17;20.95;;;-3.80;99.90;;;;;;5072420;28;20047;-71
2022/12/13 05:07:32;;;;;;;52.50;22.30;;;-3.90;99.90;;;;;;5072017;28;20032;-70
2022/12/13 05:09:58;;;;;;;47.13;20.17;;;-3.80;99.90;;;;;;5067442;28;20036;-70
2022/12/13 05:12:24;;;;;;;51.63;21.10;;;-3.90;99.90;;;;;;5058211;28;20096;-71
2022/12/13 05:14:50;;;;;;;46.72;21.23;;;-3.90;99.90;;;;;;5054169;28;20497;-71
2022/12/13 05:17:16;;;;;;;50.78;21.60;;;-3.90;99.90;;;;;;5064707;28;20025;-71
2022/12/13 05:19:42;;;;;;;45.03;20.85;;;-3.90;99.90;;;;;;5065857;28;20055;-70
2022/12/13 05:22:15;;;;;;;46.92;18.90;;;-3.90;99.90;;;;;;5066264;28;20028;-70
2022/12/13 05:24:43;;;;;;;46.40;20.67;;;-3.90;99.90;;;;;;5071602;28;20362;-71
2022/12/13 05:27:10;;;;;;;45.20;19.67;;;-3.90;99.90;;;;;;5066342;28;20579;-71
2022/12/13 05:29:37;;;;;;;47.47;21.48;;;-3.90;99.90;;;;;;5060498;28;20461;-71
2022/12/13 05:32:03;;;;;;;46.13;20.27;;;-3.90;99.90;;;;;;5068934;28;20050;-70
2022/12/13 05:34:29;;;;;;;46.88;20.38;;;-3.90;99.90;;;;;;5062840;28;20029;-70
2022/12/13 05:36:55;;;;;;;53.40;21.60;;;-3.90;99.90;;;;;;5060223;28;20024;-70
2022/12/13 05:39:21;;;;;;;50.42;21.60;;;-3.90;99.90;;;;;;5061015;28;20539;-71
2022/12/13 05:41:47;;;;;;;51.45;20.08;;;-3.90;99.90;;;;;;5060543;28;20029;-71
2022/12/13 05:44:13;;;;;;;48.42;21.38;;;-4.00;99.90;;;;;;5045541;28;20388;-71
2022/12/13 05:46:40;;;;;;;49.17;20.95;;;-3.90;99.90;;;;;;5071433;28;20091;-70
2022/12/13 05:49:05;;;;;;;50.58;20.92;;;-4.00;99.90;;;;;;5067970;28;20056;-71
2022/12/13 05:51:31;;;;;;;48.33;21.23;;;-4.00;99.90;;;;;;5057652;28;20121;-71
2022/12/13 05:53:57;;;;;;;49.47;20.70;;;-4.00;99.90;;;;;;5067683;28;20056;-71
2022/12/13 05:56:23;;;;;;;46.28;20.45;;;-4.00;99.90;;;;;;5068382;28;20363;-71
2022/12/13 05:58:48;;;;;;;46.75;21.40;;;-4.00;99.90;;;;;;5069019;28;20031;-71
2022/12/13 06:01:18;;;;;;;49.13;20.35;;;-4.00;99.90;;;;;;5070739;28;20107;-70
2022/12/13 06:03:44;;;;;;;49.42;20.50;;;-4.00;99.90;;;;;;5071092;28;20405;-70
2022/12/13 06:06:11;;;;;;;50.92;21.13;;;-4.00;99.90;;;;;;5056261;28;20036;-70
2022/12/13 06:08:37;;;;;;;49.60;20.20;;;-4.00;99.90;;;;;;5057324;28;20017;-71
2022/12/13 06:11:04;;;;;;;49.13;20.85;;;-4.00;99.90;;;;;;5056033;28;20100;-71
2022/12/13 06:13:30;;;;;;;44.03;20.10;;;-4.00;99.90;;;;;;5064409;28;20036;-70
2022/12/13 06:16:01;;;;;;;42.67;19.95;;;-4.00;99.90;;;;;;5067987;28;20024;-70
2022/12/13 06:18:29;;;;;;;45.30;19.48;;;-4.00;99.90;;;;;;5067110;28;20025;-70
2022/12/13 06:20:58;;;;;;;55.90;21.58;;;-4.00;99.90;;;;;;5064746;28;20056;-70
2022/12/13 06:23:24;;;;;;;47.83;20.65;;;-4.10;99.90;;;;;;5056636;28;20028;-70
2022/12/13 06:25:50;;;;;;;50.28;20.63;;;-4.00;99.90;;;;;;5055686;28;20020;-71
2022/12/13 06:28:16;;;;;;;50.20;20.73;;;-4.00;99.90;;;;;;5057223;28;20370;-70
2022/12/13 06:30:42;;;;;;;56.47;22.70;;;-4.10;99.90;;;;;;5064399;28;20028;-70
2022/12/13 06:33:08;;;;;;;57.72;23.17;;;-4.00;99.90;;;;;;5068766;28;20533;-70
2022/12/13 06:35:33;;;;;;;50.72;22.65;;;-4.00;99.90;;;;;;5067443;28;20437;-70
2022/12/13 06:37:59;;;;;;;48.78;21.90;;;-4.00;99.90;;;;;;5057200;28;20025;-70
2022/12/13 06:40:25;;;;;;;52.30;22.75;;;-4.00;99.90;;;;;;5059408;28;20025;-70
2022/12/13 06:42:50;;;;;;;51.97;21.70;;;-4.00;99.90;;;;;;5062256;28;20026;-70
2022/12/13 06:45:16;;;;;;;53.35;21.20;;;-4.00;99.90;;;;;;5060873;28;20053;-70
2022/12/13 06:47:42;;;;;;;50.40;22.15;;;-4.00;99.90;;;;;;5059554;28;20017;-70
2022/12/13 06:50:08;;;;;;;52.03;21.77;;;-3.90;99.90;;;;;;5055120;28;20022;-70
2022/12/13 06:52:34;;;;;;;51.30;22.63;;;-4.00;99.90;;;;;;5065251;28;20017;-70
2022/12/13 06:55:00;;;;;;;48.63;21.20;;;-3.90;99.90;;;;;;5067292;28;20036;-70
2022/12/13 06:57:26;;;;;;;49.45;20.90;;;-4.00;99.90;;;;;;5063818;28;20025;-71
2022/12/13 06:59:52;;;;;;;56.80;22.20;;;-3.90;99.90;;;;;;5067192;28;20021;-70
2022/12/13 07:02:17;;;;;;;51.95;22.42;;;-4.00;99.90;;;;;;5061039;28;20056;-69
2022/12/13 07:04:43;;;;;;;51.30;22.25;;;-4.00;99.90;;;;;;5067756;28;20135;-69
2022/12/13 07:07:08;;;;;;;55.92;22.48;;;-3.90;99.90;;;;;;5059069;28;20016;-70
2022/12/13 07:09:34;;;;;;;49.10;21.50;;;-3.90;99.90;;;;;;5067489;28;20074;-69
2022/12/13 07:12:00;;;;;;;51.67;21.27;;;-4.00;99.90;;;;;;5062446;28;20024;-69
2022/12/13 07:14:26;;;;;;;43.42;20.58;;;-4.00;99.90;;;;;;5067814;28;20040;-69
2022/12/13 07:16:52;;;;;;;48.13;21.48;;;-4.00;99.90;;;;;;5064600;28;20031;-69
2022/12/13 07:19:17;;;;;;;51.88;22.73;;;-4.00;99.90;;;;;;5062208;28;20055;-69
2022/12/13 07:21:43;;;;;;;54.45;22.05;;;-4.00;99.90;;;;;;5060056;28;20425;-69
2022/12/13 07:24:09;;;;;;;56.10;22.65;;;-4.00;99.90;;;;;;5064249;28;20059;-70
2022/12/13 07:26:35;;;;;;;54.03;20.88;;;-4.00;99.90;;;;;;5068793;28;20024;-70
2022/12/13 07:29:03;;;;;;;50.00;21.95;;;-4.00;99.90;;;;;;5062593;28;20390;-70
2022/12/13 07:31:29;;;;;;;56.08;22.08;;;-4.00;99.90;;;;;;5069657;28;20047;-70
2022/12/13 07:33:55;;;;;;;50.90;21.92;;;-4.00;99.90;;;;;;5059555;28;20053;-69
2022/12/13 07:36:22;;;;;;;50.10;21.23;;;-4.10;99.90;;;;;;5063918;28;20375;-69
2022/12/13 07:38:55;;;;;;;48.15;22.25;;;-4.10;99.90;;;;;;5057026;28;20025;-69
2022/12/13 07:41:23;;;;;;;51.65;21.30;;;-4.10;99.90;;;;;;5071444;28;20024;-70
2022/12/13 07:43:49;;;;;;;54.33;22.13;;;-4.10;99.90;;;;;;5065040;28;20027;-69
2022/12/13 07:46:15;;;;;;;59.72;23.02;;;-4.10;99.90;;;;;;5060759;28;20509;-70
2022/12/13 07:48:41;;;;;;;52.80;21.73;;;-4.10;99.90;;;;;;5061448;28;20506;-70
2022/12/13 07:51:12;;;;;;;51.58;22.60;;;-4.10;99.90;;;;;;5063045;28;20021;-70
2022/12/13 07:53:39;;;;;;;53.72;21.73;;;-4.10;99.90;;;;;;5073508;28;20025;-70
2022/12/13 07:56:10;;;;;;;52.08;22.42;;;-4.10;99.90;;;;;;5066129;28;20395;-70
2022/12/13 07:58:36;;;;;;;53.10;22.42;;;-4.10;99.90;;;;;;5073581;28;20040;-71
2022/12/13 08:01:07;;;;;;;59.58;22.98;;;-4.10;99.90;;;;;;5072511;28;20021;-70
2022/12/13 08:03:33;;;;;;;56.75;24.17;;;-4.10;99.90;;;;;;5055524;28;20513;-70
2022/12/13 08:06:08;;;;;;;57.13;24.92;;;-4.10;99.90;;;;;;5061502;28;20492;-70
2022/12/13 08:08:34;;;;;;;54.10;24.58;;;-4.10;99.90;;;;;;5056744;28;20028;-70
2022/12/13 08:11:05;;;;;;;59.15;25.25;;;-4.10;99.90;;;;;;5064128;28;20087;-71
2022/12/13 08:13:31;;;;;;;61.13;25.17;;;-4.10;99.90;;;;;;5065534;28;20021;-71
2022/12/13 08:15:59;;;;;;;60.92;25.67;;;-4.10;99.90;;;;;;5072101;28;20027;-71
2022/12/13 08:18:25;;;;;;;56.33;25.25;;;-4.00;99.90;;;;;;5069690;28;20024;-69
2022/12/13 08:20:51;;;;;;;59.38;26.15;;;-4.00;99.90;;;;;;5073150;28;20029;-69
2022/12/13 08:23:17;;;;;;;58.65;25.67;;;-4.00;99.90;;;;;;5071065;28;20408;-70
2022/12/13 08:25:50;;;;;;;54.58;25.30;;;-4.00;99.90;;;;;;5072709;28;20029;-70
2022/12/13 08:28:16;;;;;;;58.33;25.60;;;-4.00;99.90;;;;;;5058704;28;20363;-70
2022/12/13 08:30:41;;;;;;;63.83;26.92;;;-3.90;99.90;;;;;;5068460;28;20036;-69
2022/12/13 08:33:07;;;;;;;57.42;25.73;;;-3.90;99.90;;;;;;5064265;28;20059;-71
2022/12/13 08:35:33;;;;;;;56.55;25.23;;;-3.90;99.90;;;;;;5062127;28;20071;-70
2022/12/13 08:37:58;;;;;;;58.70;26.02;;;-3.90;99.90;;;;;;5063707;28;20024;-70
2022/12/13 08:40:24;;;;;;;60.97;26.48;;;-3.80;99.90;;;;;;5066564;28;20016;-70
2022/12/13 08:42:50;;;;;;;61.15;26.52;;;-3.80;99.90;;;;;;5063786;28;20033;-71
2022/12/13 08:45:16;;;;;;;61.17;27.00;;;-3.80;99.90;;;;;;5061552;28;20460;-71
2022/12/13 08:47:41;;;;;;;61.60;26.42;;;-3.70;99.90;;;;;;5061696;28;20674;-71
2022/12/13 08:50:07;;;;;;;59.00;25.77;;;-3.70;99.90;;;;;;5068452;28;20019;-71
2022/12/13 08:52:34;;;;;;;59.25;25.45;;;-3.70;99.90;;;;;;5070082;28;20025;-69
2022/12/13 08:55:00;;;;;;;63.10;26.00;;;-3.60;99.90;;;;;;5067846;28;20466;-70
2022/12/13 08:57:26;;;;;;;54.90;25.60;;;-3.60;99.90;;;;;;5063740;28;20473;-71
2022/12/13 08:59:53;;;;;;;64.20;26.23;;;-3.50;99.90;;;;;;5065740;28;20029;-71
2022/12/13 09:02:19;;;;;;;59.65;25.73;;;-3.50;99.90;;;;;;5069229;28;20101;-71
2022/12/13 09:04:45;;;;;;;57.55;24.35;;;-3.40;99.90;;;;;;5071448;28;20075;-71
2022/12/13 09:07:12;;;;;;;61.58;25.15;;;-3.40;99.90;;;;;;5071109;28;20541;-71
2022/12/13 09:09:37;;;;;;;64.82;27.13;;;-3.40;99.90;;;;;;5069288;28;20033;-71
2022/12/13 09:12:04;;;;;;;69.90;26.90;;;-3.30;99.90;;;;;;5058289;28;20025;-71
2022/12/13 09:14:30;;;;;;;63.33;26.15;;;-3.20;99.90;;;;;;5069903;28;20492;-71
2022/12/13 09:16:56;;;;;;;61.67;27.73;;;-3.20;99.90;;;;;;5068961;28;20021;-72
2022/12/13 09:19:24;;;;;;;62.13;26.67;;;-3.10;99.90;;;;;;5071139;28;20059;-72
2022/12/13 09:21:49;;;;;;;63.28;27.45;;;-3.10;99.90;;;;;;5064195;28;20036;-71
2022/12/13 09:24:15;;;;;;;57.20;26.20;;;-3.00;99.90;;;;;;5058013;28;20029;-71
2022/12/13 09:26:41;;;;;;;58.83;26.10;;;-3.00;99.90;;;;;;5054143;28;20033;-71
2022/12/13 09:29:06;;;;;;;61.38;26.67;;;-2.90;99.90;;;;;;5072060;28;20563;-71
2022/12/13 09:31:34;;;;;;;61.92;27.85;;;-2.90;99.90;;;;;;5071642;28;20107;-71
2022/12/13 09:34:00;;;;;;;59.33;27.33;;;-2.80;99.90;;;;;;5065271;28;20051;-71
2022/12/13 09:36:25;;;;;;;59.50;27.00;;;-2.70;99.90;;;;;;5069063;28;20485;-71
2022/12/13 09:38:51;;;;;;;62.40;26.75;;;-2.60;99.90;;;;;;5071530;28;20025;-71
2022/12/13 09:41:37;;;;;;;70.78;28.50;;;-2.60;99.90;;;;;;5071911;28;20374;-71
2022/12/13 09:44:28;;;;;;;64.60;27.95;;;-2.50;99.90;;;;;;5075789;28;20513;-71
2022/12/13 09:46:56;;;;;;;63.08;27.73;;;-2.40;99.90;;;;;;5056216;28;20040;-71
2022/12/13 09:49:33;;;;;;;65.97;29.33;;;-2.40;99.90;;;;;;5068637;28;22370;-71
2022/12/13 09:52:03;;;;;;;65.30;28.05;;;-2.30;99.90;;;;;;5059813;28;20020;-71
2022/12/13 09:54:28;;;;;;;62.47;27.00;;;-2.30;99.90;;;;;;5063247;28;20079;-71
2022/12/13 09:56:56;;;;;;;62.60;28.75;;;-2.20;99.90;;;;;;5062238;28;20012;-71
2022/12/13 09:59:32;;;;;;;67.32;29.08;;;-2.10;99.90;;;;;;5073866;28;20090;-71
2022/12/13 10:02:16;;;;;;;63.55;29.00;;;-2.00;99.90;;;;;;5059618;28;20066;-71
2022/12/13 10:04:42;;;;;;;69.68;28.65;;;-2.00;99.90;;;;;;5074268;28;20085;-71
2022/12/13 10:07:17;;;;;;;65.63;29.35;;;-1.90;99.90;;;;;;5076911;28;20736;-71
2022/12/13 10:09:43;;;;;;;64.60;30.27;;;-1.80;99.90;;;;;;5076281;28;20079;-71
2022/12/13 10:12:14;;;;;;;65.72;29.58;;;-1.80;99.90;;;;;;5075175;28;20421;-71
2022/12/13 10:14:44;;;;;;;66.03;30.05;;;-1.70;99.90;;;;;;5076095;28;20029;-71
2022/12/13 10:17:15;;;;;;;62.20;30.08;;;-1.60;99.90;;;;;;5069552;28;20025;-71
2022/12/13 10:19:50;;;;;;;65.10;29.95;;;-1.50;99.90;;;;;;5074350;28;20029;-72
2022/12/13 10:22:17;;;;;;;61.05;29.00;;;-1.50;99.90;;;;;;5083199;28;20020;-72
2022/12/13 10:24:49;;;;;;;67.00;30.83;;;-1.40;99.90;;;;;;5070999;28;20027;-72
2022/12/13 10:27:18;;;;;;;65.00;30.30;;;-1.30;99.90;;;;;;5077565;28;20025;-72
2022/12/13 10:30:06;;;;;;;65.85;31.35;;;-1.20;99.90;;;;;;5084165;28;20028;-72
2022/12/13 10:32:41;;;;;;;62.90;29.35;;;-1.10;99.90;;;;;;5072184;28;20029;-70
2022/12/13 10:35:21;;;;;;;;;;;-1.00;99.90;;;;;;5079148;28;20020;-71
2022/12/13 10:37:47;;;;;;;62.28;29.63;;;-1.00;99.90;;;;;;5086417;28;19908;-71
2022/12/13 10:40:34;;;;;;;67.88;31.33;;;-0.90;99.90;;;;;;5083111;28;20005;-70
2022/12/13 10:43:19;;;;;;;63.25;29.30;;;-0.90;99.90;;;;;;5078252;28;20092;-71
2022/12/13 10:45:54;;;;;;;67.07;30.02;;;-0.80;99.90;;;;;;5059831;28;20029;-70
2022/12/13 10:48:23;;;;;;;65.78;30.58;;;-0.80;99.90;;;;;;5077936;28;20020;-70
2022/12/13 10:51:09;;;;;;;63.28;30.48;;;-0.80;99.90;;;;;;5078821;28;20017;-71
2022/12/13 10:53:47;;;;;;;63.55;30.95;;;-0.70;99.90;;;;;;5073860;28;20036;-71
2022/12/13 10:56:14;;;;;;;63.60;30.33;;;-0.70;99.90;;;;;;5077374;28;20043;-70
2022/12/13 10:58:45;;;;;;;61.85;30.08;;;-0.60;99.90;;;;;;5074488;28;20074;-71
2022/12/13 11:01:18;;;;;;;64.97;30.52;;;-0.60;99.90;;;;;;5066981;28;20029;-71
2022/12/13 11:04:18;;;;;;;59.85;29.63;;;-0.60;99.90;;;;;;5080023;28;20489;-71
2022/12/13 11:06:46;;;;;;;63.15;30.63;;;-0.50;99.90;;;;;;5079492;28;20028;-71
2022/12/13 11:09:16;;;;;;;60.58;29.55;;;-0.40;99.90;;;;;;5079406;28;20040;-71
2022/12/13 11:11:43;;;;;;;60.17;29.88;;;-0.40;99.90;;;;;;5065976;28;20070;-71
2022/12/13 11:14:19;;;;;;;59.60;30.42;;;-0.30;99.90;;;;;;5077989;28;20021;-70
2022/12/13 11:16:51;;;;;;;61.75;30.30;;;-0.30;99.90;;;;;;5079027;28;20025;-71
2022/12/13 11:19:19;;;;;;;59.47;29.13;;;-0.30;99.90;;;;;;5066094;28;20465;-71
2022/12/13 11:21:51;;;;;;;61.58;29.75;;;-0.20;99.90;;;;;;5078589;28;20501;-71
2022/12/13 11:24:34;;;;;;;58.22;29.70;;;-0.20;99.90;;;;;;5077348;28;20035;-72
2022/12/13 11:27:18;;;;;;;59.85;28.80;;;-0.20;99.90;;;;;;5077482;28;20472;-71
2022/12/13 11:30:00;;;;;;;58.53;28.83;;;-0.10;99.90;;;;;;5067495;28;20025;-71
2022/12/13 11:32:41;;;;;;;60.38;29.92;;;-0.10;99.90;;;;;;5072093;28;20729;-71
2022/12/13 11:35:28;;;;;;;57.63;29.80;;;0.00;99.90;;;;;;5073038;28;20043;-71
2022/12/13 11:38:21;;;;;;;58.22;29.38;;;0.00;99.90;;;;;;5066091;28;20422;-71
2022/12/13 11:41:14;;;;;;;56.47;28.88;;;0.10;99.90;;;;;;5069618;28;20020;-70
2022/12/13 11:43:49;;;;;;;57.40;28.10;;;0.10;99.90;;;;;;5039703;28;20040;-70
2022/12/13 11:46:50;;;;;;;59.60;28.17;;;0.20;99.90;;;;;;5074925;28;20021;-70
2022/12/13 11:49:34;;;;;;;58.42;28.42;;;0.20;99.90;;;;;;5072267;28;20480;-71
2022/12/13 11:52:16;;;;;;;54.38;28.25;;;0.30;99.90;;;;;;5058472;28;20024;-71
2022/12/13 11:55:02;;;;;;;56.75;27.33;;;0.30;99.90;;;;;;5070933;28;20028;-71
2022/12/13 11:57:37;;;;;;;58.60;27.60;;;0.30;99.90;;;;;;5075075;28;20466;-70
2022/12/13 12:00:19;;;;;;;57.20;28.27;;;0.40;99.90;;;;;;5061965;28;20032;-71
2022/12/13 12:02:50;;;;;;;53.47;27.40;;;0.40;99.90;;;;;;5056271;28;20053;-71
2022/12/13 12:05:30;;;;;;;56.90;28.05;;;0.40;99.90;;;;;;5067697;28;20028;-72
2022/12/13 12:08:19;;;;;;;58.47;29.73;;;0.50;99.90;;;;;;5069496;28;20055;-72
2022/12/13 12:10:47;;;;;;;57.40;29.30;;;0.60;99.90;;;;;;5069739;28;20032;-72
2022/12/13 12:13:22;;;;;;;58.08;28.27;;;0.70;99.90;;;;;;5072575;28;20020;-72
2022/12/13 12:16:28;;;;;;;57.22;29.20;;;0.70;99.90;;;;;;5073370;28;20058;-71
2022/12/13 12:18:54;;;;;;;55.17;27.35;;;0.70;99.90;;;;;;5061165;28;20037;-72
2022/12/13 12:21:48;;;;;;;54.08;28.13;;;0.70;99.90;;;;;;5068746;28;20035;-71
2022/12/13 12:24:43;;;;;;;59.45;28.02;;;0.80;99.90;;;;;;5066799;28;20021;-72
2022/12/13 12:27:19;;;;;;;55.78;28.52;;;0.80;99.90;;;;;;5062566;28;20031;-71
2022/12/13 12:30:10;;;;;;;54.13;27.92;;;0.80;99.90;;;;;;5053628;28;20032;-72
2022/12/13 12:32:42;;;;;;;55.95;27.60;;;0.90;99.90;;;;;;5058334;28;20083;-72
2022/12/13 12:35:31;;;;;;;59.80;28.55;;;0.90;99.90;;;;;;5057991;28;20020;-72
2022/12/13 12:38:35;;;;;;;51.17;27.52;;;1.00;99.90;;;;;;5045841;28;20025;-72
2022/12/13 12:41:16;;;;;;;55.65;27.80;;;1.00;99.90;;;;;;5079432;28;20052;-72
2022/12/13 12:43:43;;;;;;;51.95;27.27;;;1.00;99.90;;;;;;5070676;28;20036;-71
2022/12/13 12:46:30;;;;;;;52.58;27.58;;;0.90;99.90;;;;;;5070907;28;20009;-71
2022/12/13 12:49:33;;;;;;;58.35;28.83;;;0.90;99.90;;;;;;5070829;28;20052;-72